createdAt,value
2023-02-22T00:02:37.564Z,2.47
2023-02-22T00:05:48.641Z,2.45
2023-02-22T00:08:57.234Z,2.38
2023-02-22T00:12:05.796Z,2.38
2023-02-22T00:15:16.990Z,2.37
2023-02-22T00:18:27.908Z,2.17
2023-02-22T00:21:38.221Z,2.23
2023-02-22T00:24:46.440Z,2.30
2023-02-22T00:27:54.996Z,2.18
2023-02-22T00:31:05.252Z,2.16
2023-02-22T00:34:15.119Z,2.08
2023-02-22T00:37:24.639Z,2.18
2023-02-22T00:40:35.535Z,2.05
2023-02-22T00:43:43.788Z,2.00
2023-02-22T00:46:53.811Z,1.98
2023-02-22T00:50:04.140Z,1.99
2023-02-22T00:53:13.657Z,1.89
2023-02-22T00:56:21.989Z,1.77
2023-02-22T00:59:31.130Z,1.89
2023-02-22T01:02:39.834Z,1.91
2023-02-22T01:05:49.108Z,1.92
2023-02-22T01:08:58.818Z,1.88
2023-02-22T01:12:08.042Z,1.86
2023-02-22T01:15:21.633Z,1.86
2023-02-22T01:18:29.819Z,1.83
2023-02-22T01:21:38.039Z,1.84
2023-02-22T01:24:47.728Z,1.89
2023-02-22T01:27:58.631Z,1.82
2023-02-22T01:31:07.386Z,1.85
2023-02-22T01:34:17.366Z,1.65
2023-02-22T01:37:25.532Z,1.72
2023-02-22T01:40:37.476Z,1.62
2023-02-22T01:43:46.478Z,1.65
2023-02-22T01:46:56.856Z,1.57
2023-02-22T01:50:05.293Z,1.49
2023-02-22T01:53:18.508Z,1.46
2023-02-22T01:56:33.652Z,1.42
2023-02-22T01:59:47.205Z,1.55
2023-02-22T02:03:12.950Z,1.51
2023-02-22T02:06:22.096Z,1.46
2023-02-22T02:09:37.440Z,1.43
2023-02-22T02:12:51.015Z,1.39
2023-02-22T02:15:59.315Z,1.43
2023-02-22T02:19:20.321Z,1.37
2023-02-22T02:22:47.716Z,1.32
2023-02-22T02:26:35.371Z,1.39
2023-02-22T02:30:49.804Z,1.41
2023-02-22T02:34:11.604Z,1.42
2023-02-22T02:37:34.196Z,1.35
2023-02-22T02:40:53.946Z,1.33
2023-02-22T02:44:12.080Z,1.34
2023-02-22T02:47:28.939Z,1.38
2023-02-22T02:50:46.102Z,1.38
2023-02-22T02:53:55.735Z,1.39
2023-02-22T02:57:05.655Z,1.35
2023-02-22T03:00:24.149Z,1.39
2023-02-22T03:04:17.473Z,1.34
2023-02-22T03:07:45.756Z,1.33
2023-02-22T03:11:05.560Z,1.31
2023-02-22T03:14:36.913Z,1.25
2023-02-22T03:17:55.052Z,1.33
2023-02-22T03:21:16.883Z,1.21
2023-02-22T03:24:38.557Z,1.08
2023-02-22T03:27:53.288Z,1.13
2023-02-22T03:31:07.243Z,1.16
2023-02-22T03:34:23.499Z,1.24
2023-02-22T03:37:37.473Z,1.12
2023-02-22T03:40:55.493Z,1.21
2023-02-22T03:44:09.563Z,1.29
2023-02-22T03:47:28.669Z,1.27
2023-02-22T03:50:39.894Z,1.36
2023-02-22T03:53:49.622Z,1.33
2023-02-22T03:57:09.715Z,1.40
2023-02-22T04:00:25.508Z,1.27
2023-02-22T04:03:33.723Z,1.15
2023-02-22T04:06:43.608Z,1.07
2023-02-22T04:09:53.095Z,1.08
2023-02-22T04:13:02.926Z,1.09
2023-02-22T04:16:11.310Z,1.20
2023-02-22T04:19:20.000Z,1.18
2023-02-22T04:22:28.197Z,1.20
2023-02-22T04:25:36.791Z,1.01
2023-02-22T04:28:53.662Z,0.80
2023-02-22T04:32:06.280Z,0.55
2023-02-22T04:35:14.829Z,0.90
2023-02-22T04:38:25.945Z,0.94
2023-02-22T04:41:36.369Z,0.98
2023-02-22T04:44:46.209Z,1.00
2023-02-22T04:47:54.685Z,1.01
2023-02-22T04:51:03.601Z,1.02
2023-02-22T04:54:14.126Z,0.98
2023-02-22T05:00:57.525Z,0.88
2023-02-22T05:04:07.647Z,0.96
2023-02-22T05:07:16.112Z,0.79
2023-02-22T05:10:24.801Z,0.73
2023-02-22T05:13:33.313Z,0.75
2023-02-22T05:16:42.988Z,0.75
2023-02-22T05:19:51.217Z,0.66
2023-02-22T05:23:02.067Z,0.64
2023-02-22T05:26:11.718Z,0.65
2023-02-22T05:29:21.107Z,0.72
2023-02-22T05:32:30.964Z,0.72
2023-02-22T05:35:39.216Z,0.58
2023-02-22T05:38:47.600Z,0.58
2023-02-22T05:41:56.001Z,0.55
2023-02-22T05:45:06.551Z,0.42
2023-02-22T05:48:17.073Z,0.57
2023-02-22T05:51:25.262Z,0.63
2023-02-22T05:54:33.389Z,0.65
2023-02-22T05:57:41.498Z,0.64
2023-02-22T06:00:49.899Z,0.68
2023-02-22T06:04:00.191Z,0.66
2023-02-22T06:07:08.521Z,0.63
2023-02-22T06:10:17.312Z,0.62
2023-02-22T06:13:25.765Z,0.62
2023-02-22T06:16:33.935Z,0.64
2023-02-22T06:19:43.986Z,0.60
2023-02-22T06:22:54.715Z,0.76
2023-02-22T06:26:02.830Z,0.82
2023-02-22T06:29:11.048Z,0.90
2023-02-22T06:32:19.202Z,0.94
2023-02-22T06:35:28.757Z,0.84
2023-02-22T06:38:37.140Z,0.95
2023-02-22T06:41:47.013Z,0.96
2023-02-22T06:44:55.193Z,1.04
2023-02-22T06:48:03.496Z,1.14
2023-02-22T06:51:13.292Z,1.15
2023-02-22T06:54:23.245Z,1.32
2023-02-22T06:57:31.375Z,1.41
2023-02-22T07:00:39.786Z,1.55
2023-02-22T07:03:50.503Z,1.89
2023-02-22T07:07:00.546Z,2.09
2023-02-22T07:10:16.895Z,2.35
2023-02-22T07:13:25.470Z,2.62
2023-02-22T07:16:33.748Z,3.08
2023-02-22T07:19:41.927Z,3.40
2023-02-22T07:22:51.884Z,3.91
2023-02-22T07:26:02.142Z,4.42
2023-02-22T07:29:11.330Z,4.64
2023-02-22T07:32:20.001Z,4.65
2023-02-22T07:35:33.660Z,4.78
2023-02-22T07:38:43.236Z,4.95
2023-02-22T07:41:51.422Z,5.01
2023-02-22T07:45:07.193Z,5.00
2023-02-22T07:48:18.487Z,5.02
2023-02-22T07:51:27.083Z,5.09
2023-02-22T07:54:37.995Z,5.33
2023-02-22T07:57:47.585Z,5.36
2023-02-22T08:00:59.270Z,5.47
2023-02-22T08:04:07.496Z,5.58
2023-02-22T08:07:15.890Z,5.80
2023-02-22T08:10:28.309Z,5.99
2023-02-22T08:13:37.488Z,6.26
2023-02-22T08:16:46.280Z,6.49
2023-02-22T08:19:54.804Z,6.67
2023-02-22T08:23:04.910Z,6.67
2023-02-22T08:26:18.491Z,6.75
2023-02-22T08:29:33.497Z,7.00
2023-02-22T08:32:42.095Z,7.30
2023-02-22T08:35:51.693Z,7.47
2023-02-22T08:39:00.641Z,7.71
2023-02-22T08:42:10.850Z,7.83
2023-02-22T08:45:19.830Z,8.04
2023-02-22T08:48:28.256Z,8.22
2023-02-22T08:51:37.819Z,8.29
2023-02-22T08:54:47.565Z,8.36
2023-02-22T08:57:57.064Z,8.58
2023-02-22T09:01:05.595Z,8.68
2023-02-22T09:04:14.124Z,8.78
2023-02-22T09:07:22.312Z,8.92
2023-02-22T09:10:34.259Z,9.02
2023-02-22T09:13:43.760Z,9.32
2023-02-22T09:16:52.281Z,9.47
2023-02-22T09:20:00.450Z,9.53
2023-02-22T09:23:10.656Z,9.66
2023-02-22T09:26:18.863Z,9.78
2023-02-22T09:29:29.442Z,10.00
2023-02-22T09:32:38.568Z,10.19
2023-02-22T09:35:50.175Z,10.31
2023-02-22T09:38:58.907Z,10.42
2023-02-22T09:42:17.261Z,10.63
2023-02-22T09:45:38.869Z,10.90
2023-02-22T09:49:07.308Z,11.05
2023-02-22T09:52:22.864Z,10.99
2023-02-22T09:55:38.652Z,11.13
2023-02-22T09:58:52.345Z,11.28
2023-02-22T10:02:20.305Z,11.47
2023-02-22T10:05:37.471Z,11.56
2023-02-22T10:08:46.231Z,11.79
2023-02-22T10:12:01.672Z,12.01
2023-02-22T10:15:41.213Z,12.19
2023-02-22T10:19:20.540Z,12.29
2023-02-22T10:22:56.718Z,12.66
2023-02-22T10:26:19.905Z,12.68
2023-02-22T10:29:37.694Z,12.55
2023-02-22T10:32:54.513Z,12.56
2023-02-22T10:36:04.858Z,12.81
2023-02-22T10:39:27.414Z,13.05
2023-02-22T10:42:35.827Z,13.32
2023-02-22T10:45:44.327Z,13.48
2023-02-22T10:48:57.821Z,13.75
2023-02-22T10:52:19.175Z,13.76
2023-02-22T10:55:27.859Z,13.98
2023-02-22T10:58:44.710Z,14.19
2023-02-22T11:01:53.420Z,14.26
2023-02-22T11:05:06.103Z,14.22
2023-02-22T11:08:28.165Z,14.07
2023-02-22T11:11:36.285Z,14.31
2023-02-22T11:14:44.432Z,14.44
2023-02-22T11:17:56.159Z,14.32
2023-02-22T11:21:10.194Z,14.50
2023-02-22T11:24:24.132Z,14.74
2023-02-22T11:27:43.759Z,14.74
2023-02-22T11:30:53.355Z,14.63
2023-02-22T11:34:04.881Z,14.83
2023-02-22T11:37:31.232Z,14.91
2023-02-22T11:40:40.826Z,14.86
2023-02-22T11:43:52.187Z,14.83
2023-02-22T11:47:06.929Z,14.92
2023-02-22T11:50:29.485Z,14.97
2023-02-22T11:54:04.728Z,15.06
2023-02-22T11:57:37.238Z,15.18
2023-02-22T12:00:55.711Z,15.28
2023-02-22T12:04:40.922Z,15.26
2023-02-22T12:08:19.316Z,15.34
2023-02-22T12:11:41.058Z,15.33
2023-02-22T12:15:01.916Z,15.32
2023-02-22T12:18:22.818Z,15.34
2023-02-22T12:21:34.766Z,15.35
2023-02-22T12:24:51.604Z,15.39
2023-02-22T12:28:24.697Z,15.55
2023-02-22T12:31:44.194Z,15.58
2023-02-22T12:34:59.500Z,15.43
2023-02-22T12:38:23.172Z,15.32
2023-02-22T12:41:41.435Z,15.35
2023-02-22T12:45:02.238Z,15.42
2023-02-22T12:48:31.478Z,15.32
2023-02-22T12:51:48.460Z,15.26
2023-02-22T12:55:07.517Z,15.28
2023-02-22T12:58:27.039Z,15.15
2023-02-22T13:01:40.850Z,15.06
2023-02-22T13:04:50.870Z,15.06
2023-02-22T13:08:23.449Z,14.95
2023-02-22T13:11:43.383Z,14.97
2023-02-22T13:15:09.423Z,14.97
2023-02-22T13:18:30.183Z,15.04
2023-02-22T13:21:50.579Z,15.28
2023-02-22T13:25:09.575Z,15.41
2023-02-22T13:28:30.141Z,15.35
2023-02-22T13:32:10.598Z,15.28
2023-02-22T13:35:52.245Z,15.39
2023-02-22T13:39:43.465Z,15.53
2023-02-22T13:43:23.956Z,15.73
2023-02-22T13:47:28.676Z,15.69
2023-02-22T13:51:14.984Z,15.68
2023-02-22T13:54:35.404Z,15.68
2023-02-22T13:58:00.147Z,15.88
2023-02-22T14:01:55.000Z,15.86
2023-02-22T14:05:53.264Z,16.01
2023-02-22T14:09:13.495Z,15.97
2023-02-22T14:12:52.464Z,15.90
2023-02-22T14:16:25.626Z,15.69
2023-02-22T14:19:34.375Z,15.55
2023-02-22T14:22:45.623Z,15.52
2023-02-22T14:25:55.685Z,15.62
2023-02-22T14:29:20.437Z,15.59
2023-02-22T14:32:33.932Z,15.54
2023-02-22T14:35:49.746Z,15.55
2023-02-22T14:39:09.488Z,15.43
2023-02-22T14:42:25.522Z,15.34
2023-02-22T14:45:43.516Z,15.32
2023-02-22T14:49:00.791Z,15.31
2023-02-22T14:52:23.654Z,15.37
2023-02-22T14:55:35.034Z,15.30
2023-02-22T14:58:49.544Z,15.30
2023-02-22T15:02:14.911Z,15.33
2023-02-22T15:05:23.193Z,15.25
2023-02-22T15:08:32.139Z,15.19
2023-02-22T15:11:40.333Z,15.25
2023-02-22T15:14:49.714Z,15.21
2023-02-22T15:17:59.845Z,15.04
2023-02-22T15:21:16.190Z,14.81
2023-02-22T15:24:29.197Z,14.56
2023-02-22T15:27:39.103Z,14.34
2023-02-22T15:30:47.490Z,14.11
2023-02-22T15:33:57.336Z,13.95
2023-02-22T15:37:25.475Z,13.74
2023-02-22T15:40:35.848Z,13.59
2023-02-22T15:43:43.997Z,13.40
2023-02-22T15:46:54.421Z,13.22
2023-02-22T15:50:23.500Z,13.07
2023-02-22T15:53:43.521Z,12.94
2023-02-22T15:56:56.607Z,12.79
2023-02-22T16:00:06.662Z,12.64
2023-02-22T16:03:27.392Z,12.52
2023-02-22T16:06:41.592Z,12.37
2023-02-22T16:09:52.471Z,12.24
2023-02-22T16:13:30.993Z,12.11
2023-02-22T16:16:41.595Z,12.04
2023-02-22T16:19:50.475Z,11.97
2023-02-22T16:23:00.239Z,11.84
2023-02-22T16:26:23.605Z,11.62
2023-02-22T16:29:32.092Z,11.44
2023-02-22T16:32:42.347Z,11.26
2023-02-22T16:35:52.944Z,11.21
2023-02-22T16:39:02.679Z,11.02
2023-02-22T16:42:11.112Z,10.83
2023-02-22T16:45:21.052Z,10.65
2023-02-22T16:48:32.588Z,10.78
2023-02-22T16:51:46.717Z,10.73
2023-02-22T16:54:56.238Z,10.30
2023-02-22T17:01:46.979Z,10.08
2023-02-22T17:04:55.129Z,9.72
2023-02-22T17:08:03.721Z,9.34
2023-02-22T17:11:15.633Z,9.09
2023-02-22T17:14:31.881Z,8.87
2023-02-22T17:17:40.009Z,8.73
2023-02-22T17:20:48.522Z,8.62
2023-02-22T17:23:57.075Z,8.56
2023-02-22T17:27:06.692Z,8.84
2023-02-22T17:30:23.828Z,8.64
2023-02-22T17:33:36.707Z,8.55
2023-02-22T17:36:44.817Z,8.67
2023-02-22T17:39:53.260Z,8.50
2023-02-22T17:43:03.818Z,8.36
2023-02-22T17:46:12.201Z,8.46
2023-02-22T17:49:20.557Z,8.51
2023-02-22T17:52:30.152Z,8.50
2023-02-22T17:55:40.634Z,8.44
2023-02-22T17:58:55.646Z,8.32
2023-02-22T18:02:04.032Z,8.17
2023-02-22T18:05:16.233Z,8.24
2023-02-22T18:08:25.278Z,8.25
2023-02-22T18:11:33.379Z,8.17
2023-02-22T18:14:43.190Z,8.09
2023-02-22T18:17:51.371Z,8.00
2023-02-22T18:21:00.597Z,7.85
2023-02-22T18:24:09.051Z,7.73
2023-02-22T18:27:17.302Z,7.62
2023-02-22T18:30:27.404Z,7.48
2023-02-22T18:33:35.567Z,7.38
2023-02-22T18:36:43.726Z,7.16
2023-02-22T18:39:52.024Z,7.14
2023-02-22T18:43:00.291Z,7.06
2023-02-22T18:46:13.383Z,6.92
2023-02-22T18:49:21.776Z,6.79
2023-02-22T18:52:31.042Z,6.57
2023-02-22T18:55:39.337Z,6.48
2023-02-22T18:58:47.410Z,6.45
2023-02-22T19:01:57.512Z,6.43
2023-02-22T19:05:07.320Z,6.41
2023-02-22T19:08:15.636Z,6.36
2023-02-22T19:11:25.797Z,6.30
2023-02-22T19:14:34.129Z,6.24
2023-02-22T19:17:45.132Z,6.12
2023-02-22T19:20:57.482Z,6.18
2023-02-22T19:24:06.973Z,6.24
2023-02-22T19:27:15.505Z,6.16
2023-02-22T19:30:24.761Z,6.18
2023-02-22T19:33:37.511Z,5.99
2023-02-22T19:36:47.327Z,5.97
2023-02-22T19:39:55.488Z,5.84
2023-02-22T19:43:03.573Z,6.14
2023-02-22T19:46:12.953Z,6.14
2023-02-22T19:49:22.817Z,6.09
2023-02-22T19:52:30.972Z,6.10
2023-02-22T19:55:39.089Z,6.07
2023-02-22T19:58:51.117Z,6.12
2023-02-22T20:01:59.350Z,6.33
2023-02-22T20:05:16.316Z,6.21
2023-02-22T20:08:26.480Z,6.33
2023-02-22T20:11:35.274Z,6.29
2023-02-22T20:14:43.812Z,6.13
2023-02-22T20:17:52.630Z,6.05
2023-02-22T20:21:08.176Z,6.02
2023-02-22T20:24:18.389Z,5.94
2023-02-22T20:27:26.568Z,5.85
2023-02-22T20:30:34.651Z,5.80
2023-02-22T20:33:43.645Z,5.74
2023-02-22T20:36:54.372Z,5.72
2023-02-22T20:40:04.916Z,5.87
2023-02-22T20:43:13.499Z,5.92
2023-02-22T20:46:23.326Z,5.96
2023-02-22T20:49:31.562Z,6.05
2023-02-22T20:52:40.996Z,6.07
2023-02-22T20:55:55.651Z,6.28
2023-02-22T20:59:06.037Z,6.22
2023-02-22T21:02:14.179Z,6.25
2023-02-22T21:05:22.507Z,6.08
2023-02-22T21:08:33.248Z,6.06
2023-02-22T21:11:42.423Z,5.94
2023-02-22T21:14:51.206Z,5.97
2023-02-22T21:17:59.376Z,6.04
2023-02-22T21:21:10.375Z,6.10
2023-02-22T21:24:19.973Z,6.17
2023-02-22T21:27:28.190Z,6.17
2023-02-22T21:30:36.497Z,6.20
2023-02-22T21:33:44.893Z,6.15
2023-02-22T21:36:54.260Z,5.83
2023-02-22T21:40:10.188Z,5.78
2023-02-22T21:43:19.020Z,5.70
2023-02-22T21:46:29.078Z,5.66
2023-02-22T21:49:38.002Z,5.66
2023-02-22T21:52:49.738Z,5.62
2023-02-22T21:56:05.472Z,5.48
2023-02-22T21:59:18.828Z,5.82
2023-02-22T22:02:29.138Z,5.78
2023-02-22T22:05:40.720Z,5.76
2023-02-22T22:08:50.387Z,5.76
2023-02-22T22:12:05.067Z,5.76
2023-02-22T22:15:16.452Z,5.90
2023-02-22T22:18:24.811Z,5.95
2023-02-22T22:21:33.583Z,5.95
2023-02-22T22:24:45.722Z,5.89
2023-02-22T22:27:56.167Z,5.87
2023-02-22T22:31:04.652Z,5.96
2023-02-22T22:34:13.191Z,5.97
2023-02-22T22:37:22.629Z,6.00
2023-02-22T22:40:34.247Z,6.21
2023-02-22T22:43:46.126Z,6.40
2023-02-22T22:46:54.816Z,6.40
2023-02-22T22:50:03.253Z,6.30
2023-02-22T22:53:11.783Z,6.13
2023-02-22T22:56:26.319Z,6.38
2023-02-22T22:59:37.246Z,6.33
2023-02-22T23:02:48.688Z,6.15
2023-02-22T23:06:02.189Z,6.17
2023-02-22T23:09:18.697Z,6.13
2023-02-22T23:12:31.527Z,6.10
2023-02-22T23:15:47.537Z,6.01
2023-02-22T23:18:56.413Z,6.06
2023-02-22T23:22:07.063Z,5.98
2023-02-22T23:25:15.842Z,5.91
2023-02-22T23:28:24.071Z,5.98
2023-02-22T23:31:33.678Z,5.99
2023-02-22T23:34:41.956Z,5.79
2023-02-22T23:37:53.392Z,5.67
2023-02-22T23:41:04.501Z,5.59
2023-02-22T23:44:17.710Z,5.73
2023-02-22T23:47:31.733Z,5.66
2023-02-22T23:50:40.075Z,5.56
2023-02-22T23:53:49.549Z,5.54
2023-02-22T23:56:57.800Z,5.53
